Tiempo atmosférico en la estación meteorológica de Cazalla De La Sierra, Sevilla (550 m.)



Fecha
DESCASC
Temp. máxima en grados centígrados (hora)
DESCASC
Temp. mínima en grados centígrados (hora)
DESCASC
Temp. media en grados centígrados
DESCASC
Racha de viento máxima en m/sg (hora)
DESCASC
Velocidad máxima media en intervalos de 10 minutos(hora)
DESCASC
Precipitaciones diarias en mm
DESCASC
Precipitaciones de 00:00 a 06:00 en mm
DESCASC
Precipitaciones de 06:00 a 12:00 en mm
DESCASC
Precipitaciones de 12:00 a 18:00 en mm
DESCASC
Precipitaciones de 18:00 a 24:00 en mm
DESCASC
20-10-2019 17 (15:50) 7.3 (08:40) 12.2 7.78 (13:30) 4.44 (12:40) 0 0 0 0 0
19-10-2019 18.9 (15:10) 12.2 (23:20) 15.5 14.17 (20:20) 7.78 (20:20) 33.4 0 0 4.3 29.1
18-10-2019 21.3 (15:30) 10.2 (07:40) 15.7 6.11 (18:50) 2.5 (18:40) 0 0 0 0 0
17-10-2019 24.6 (15:50) 6 (00:00) 15.3 6.67 (17:10) 3.33 (17:30) 0 0 0 0 0
16-10-2019 23.3 (17:00) 5 (00:00) 14.1 6.11 (17:10) 2.78 (17:10) 0 0 0 0 0
15-10-2019 19.3 (16:20) 3.4 (00:00) 11.3 6.67 (15:00) 2.5 (18:30) 0.1 0 0.1 0 0
14-10-2019 21.3 (14:40) 10.7 (00:00) 16 12.22 (05:00) 6.39 (16:30) 1.9 0 0.5 0 1.4
13-10-2019 26.3 (16:30) 14 (00:00) 20.1 7.5 (16:00) 3.33 (13:30) 0 0 0 0 0
12-10-2019 30.1 (15:30) 17 (00:00) 23.6 9.72 (12:40) 4.44 (12:50) 0 0 0 0 0
10-10-2019 30.4 (15:50) 14.1 (00:00) 22.3 5.83 (14:40) 2.5 (14:30) 0 0 0 0 0
09-10-2019 32.3 (16:10) 13.1 (00:00) 22.7 6.67 (16:30) 2.78 (16:40) 0 0 0 0 0
08-10-2019 32.5 (15:50) 14.2 (00:00) 23.3 5.28 (16:30) 2.5 (10:10) 0 0 0 0 0
07-10-2019 33.2 (17:20) 12 (00:00) 22.6 5 (17:20) 1.67 (10:20) 0 0 0 0 0
06-10-2019 31.8 (16:30) 9.8 (00:00) 20.8 5.83 (16:30) 2.5 (16:00) 0 0 0 0 0
05-10-2019 29.1 (16:50) 11.4 (08:40) 20.3 5.83 (13:50) 2.22 (16:50) 0 0 0 0 0
04-10-2019 28.5 (16:00) 11 (00:00) 19.8 6.11 (15:00) 3.33 (14:50) 0 0 0 0 0
03-10-2019 30.4 (17:00) 9.7 (00:00) 20 6.39 (17:00) 3.89 (16:30) 0 0 0 0 0
02-10-2019 28.6 (17:00) 7.7 (00:00) 18.2 8.06 (02:50) 3.61 (02:30) 0 0 0 0 0
01-10-2019 28.7 (15:40) 13.7 (00:00) 21.2 9.44 (16:10) 5 (16:40) 0 0 0 0 0
30-09-2019 31.6 (15:40) 12.2 (00:00) 21.9 6.11 (18:10) 2.78 (16:50) 0 0 0 0 0
29-09-2019 31.8 (15:50) 12.7 (00:00) 22.2 6.11 (16:30) 2.5 (16:30) 0 0 0 0 0
28-09-2019 32.4 (15:50) 12.3 (00:00) 22.4 8.06 (17:50) 2.22 (17:40) 0 0 0 0 0
27-09-2019 -- (--) -- (--) -- -- (--) -- (--) 0 0 0 0 0
26-09-2019 30.9 (17:20) 11.5 (00:00) 21.2 6.39 (17:40) 2.22 (17:40) 0 0 0 0 0
25-09-2019 27.9 (16:30) 13.3 (00:00) 20.6 6.94 (18:00) 3.06 (17:40) 0 0 0 0 0
24-09-2019 31 (17:10) 10.7 (00:00) 20.8 6.11 (20:30) 3.33 (16:20) 0 0 0 0 0
23-09-2019 28.1 (17:40) 10.7 (00:00) 19.4 -- (--) -- (--) 0 0 0 0 0
22-09-2019 23.5 (17:40) 15.5 (00:00) 19.5 7.5 (06:30) 3.33 (15:50) 9.2 3.1 6.1 0 0

Gráficas

Temp. máximas Temp. mínimas Temp. medias Precipitaciones Rachas de viento máximas Velocidades máximas media en intervalos de 10 minutos

Datos horarios

Fecha y hora oficial Temperatura (ºC) Velocidad del viento (km/h) Dirección del viento Racha (km/h) Dirección de racha Precipitación (mm) Presión (hPa) Tendencia (hPa) Humedad (%)
2019-10-21 23:00:00 8 2 Sudeste 9 Este 0 951.9 0.5 84
2019-10-21 22:00:00 8 4 Este 8 Noroeste 0 951.8 0.6 87
2019-10-21 21:00:00 8.8 0 Calma 5 Este 0 951.8 0.6 81
2019-10-21 20:00:00 12.1 4 Este 14 Nordeste 0 951.4 0.2 67
2019-10-21 19:00:00 13.3 6 Norte 22 Noroeste 0 951.2 -0.2 57
2019-10-21 18:00:00 15.6 2 Sudeste 15 Sudeste 0 951.2 -0.4 51
2019-10-21 17:00:00 17 7 Sudoeste 16 Sudoeste 0 951.2 -1.1 48
2019-10-21 16:00:00 16.5 5 Oeste 17 Noroeste 0 951.4 -1.6 45
2019-10-21 15:00:00 19.4 2 Oeste 15 Oeste 0 951.6 -1.6 35
2019-10-21 14:00:00 17.4 9 Oeste 16 Sudoeste 0 952.3 -1 42
2019-10-21 13:00:00 16.5 5 Oeste 13 Oeste 0 953 0 46
2019-10-21 12:00:00 14.8 4 Este 10 Este 0 953.2 0.7 57
2019-10-21 11:00:00 12 3 Este 6 Este 0 953.3 1 79
2019-10-21 10:00:00 8.7 3 Sudeste 6 Este 0 953 0.8 92
2019-10-21 09:00:00 5.3 4 Sudeste 8 Este 0 952.5 0.4 96
2019-10-21 08:00:00 5.1 5 Este 9 Sudeste 0 952.3 0.2 96
2019-10-21 07:00:00 5.4 4 Este 9 Este 0 952.2 0.1 95
2019-10-21 06:00:00 5.4 4 Este 8 Este 0 952.1 -0.3 94
2019-10-21 05:00:00 5.7 4 Este 6 Este 0 952.1 0 94
2019-10-21 04:00:00 6 3 Este 7 Este 0 952.1 -0.1 92
2019-10-21 03:00:00 6.4 4 Este 6 Este 0 952.4 0.2 90
2019-10-21 02:00:00 6.8 4 Sudeste 6 Sudeste 0 952.1 0.2 88
2019-10-21 01:00:00 7.2 5 Este 7 Este 0 952.2 0.8 87
2019-10-21 00:00:00 9.2 0 Calma 11 Norte 0 952.2 1 78
2019-10-20 23:00:00 10.9 3 Noroeste 14 Noroeste 0 951.9 1.3 69
2019-10-20 22:00:00 12.3 6 Noroeste 15 Noroeste 0 951.4 1.4 64
2019-10-20 21:00:00 12.6 0 Calma 7 Oeste 0 951.2 1.4 62
2019-10-20 20:00:00 13.2 3 Oeste 10 Oeste 0 950.6 1 58
2019-10-20 19:00:00 14.5 5 Oeste 17 Oeste 0 950 0.8 52
2019-10-20 18:00:00 15.1 7 Oeste 18 Noroeste 0 949.8 0.6 51
2019-10-20 17:00:00 15.9 10 Noroeste 22 Noroeste 0 949.6 0.1 48
2019-10-20 16:00:00 15.8 9 Noroeste 23 Noroeste 0 949.2 -0.1 49
2019-10-20 15:00:00 16.1 10 Noroeste 26 Noroeste 0 949.2 0 51
2019-10-20 14:00:00 14.7 14 Noroeste 28 Oeste 0 949.5 0.8 56
2019-10-20 13:00:00 14.3 13 Oeste 27 Oeste 0 949.3 0.9 65
2019-10-20 12:00:00 12.8 11 Oeste 23 Oeste 0 949.2 1.8 76
2019-10-20 11:00:00 10.7 11 Noroeste 21 Oeste 0 948.7 1.9 88
2019-10-20 10:00:00 9.3 0 Calma 3 Oeste 0 948.4 1.8 96
2019-10-20 09:00:00 7.5 0 Calma 6 Sudoeste 0 947.4 1.1 97
2019-10-20 08:00:00 8.4 2 Oeste 9 Oeste 0 946.8 0.8 96
2019-10-20 07:00:00 8.9 0 Calma 6 Oeste 0 946.6 0 98
2019-10-20 06:00:00 8.5 3 Oeste 8 Sudoeste 0 946.3 0.4 97
2019-10-20 05:00:00 8.9 0 Calma 9 Sur 0 946 -0.4 96
2019-10-20 04:00:00 9.1 0 Calma 7 Oeste 0 946.6 1.1 94
2019-10-20 03:00:00 10.4 5 Oeste 12 Oeste 0 945.9 0.9 93
2019-10-20 02:00:00 12 7 Sudoeste 19 Oeste 0 946.4 1.9 92
2019-10-20 01:00:00 12.1 3 Oeste 8 Oeste 0 945.5 1.3 95
2019-10-20 00:00:00 12.2 4 Oeste 15 Noroeste 0 945 1.5 95
2019-10-19 23:00:00 12.4 11 Oeste 43 Oeste 0.6 944.5 1.3 94
2019-10-19 22:00:00 14.4 17 Oeste 42 Oeste 0.7 944.2 0.4 94
2019-10-19 21:00:00 15.7 10 Oeste 51 Oeste 11 943.5 -1.2 97
2019-10-19 20:00:00 16.4 16 Sudoeste 50 Sudoeste 11.8 943.2 -2 95
2019-10-19 19:00:00 15.7 10 Sudoeste 37 Sudoeste 5 943.8 -2.1 96
2019-10-19 18:00:00 15.9 7 Noroeste 23 Sudoeste 3.3 944.7 -1.9 94
2019-10-19 17:00:00 16.6 7 Sudoeste 28 Sudoeste 0.8 945.2 -2.5 90
2019-10-19 16:00:00 17.8 12 Sudoeste 36 Sudoeste 0 945.9 -2.5 78
2019-10-19 15:00:00 18.6 12 Sudoeste 44 Oeste 0 946.6 -2.5 66
2019-10-19 14:00:00 17.6 10 Sudoeste 27 Sur 0 947.7 -1.4 70
2019-10-19 13:00:00 16 6 Sudoeste 20 Sudoeste 0.2 948.4 -1.2 80
2019-10-19 12:00:00 15.2 8 Sur 25 Sur 0 949.1 -0.3 81
2019-10-19 11:00:00 14.4 5 Sudeste 13 Sudeste 0 949.1 -0.4 83
2019-10-19 10:00:00 12.7 0 Calma 9 Este 0 949.6 -0.1 90
2019-10-19 09:00:00 12.7 4 Este 7 Este 0 949.4 -0.4 88
2019-10-19 08:00:00 13.4 4 Este 8 Norte 0 949.5 -0.7 82
2019-10-19 07:00:00 13.6 3 Nordeste 13 Norte 0 949.7 -1.1 74
2019-10-19 06:00:00 13.5 0 Calma 8 Noroeste 0 949.8 -1.4 76
2019-10-19 05:00:00 13.3 0 Calma 5 Oeste 0 950.2 -1.3 80
2019-10-19 04:00:00 12.6 4 Noroeste 11 Noroeste 0 950.8 -1.1 82
2019-10-19 03:00:00 13.4 4 Norte 9 Norte 0 951.2 -1.1 79
2019-10-19 02:00:00 14.6 0 Calma 7 Norte 0 951.5 -1 86
2019-10-19 01:00:00 15.8 5 Oeste 12 Oeste 0 951.9 -0.7 91
2019-10-19 00:00:00 16.2 5 Oeste 12 Noroeste 0 952.3 -0.1 92
2019-10-18 23:00:00 16.5 2 Oeste 15 Sudoeste 0 952.5 0.2 90
2019-10-18 22:00:00 16.8 3 Oeste 11 Noroeste 0 952.6 0.2 89
2019-10-18 21:00:00 17.4 4 Sudoeste 12 Sur 0 952.4 -0.5 86
2019-10-18 20:00:00 18 4 Sudoeste 18 Sur 0 952.3 -1.2 83
2019-10-18 19:00:00 19 8 Sudoeste 22 Sudoeste 0 952.4 -1.3 77
2019-10-18 18:00:00 19.7 8 Sudoeste 18 Oeste 0 952.9 -1.5 73
2019-10-18 17:00:00 19.9 7 Sudoeste 18 Sudoeste 0 953.5 -1.6 71
2019-10-18 16:00:00 20.4 5 Sudoeste 18 Sudoeste 0 953.7 -1.9 66
2019-10-18 15:00:00 20.5 8 Sudoeste 17 Sudoeste 0 954.4 -1.4 68
2019-10-18 14:00:00 18.5 5 Sudoeste 14 Sudoeste 0 955.1 -0.5 73
2019-10-18 13:00:00 18.5 5 Sudoeste 18 Sudoeste 0 955.6 -0.1 71
2019-10-18 12:00:00 18.9 6 Sudoeste 14 Sur 0 955.8 0.9 71
2019-10-18 11:00:00 17 3 Noroeste 8 Oeste 0 955.6 0.7 80
2019-10-18 10:00:00 13.8 5 Oeste 7 Noroeste 0 955.7 1 92
2019-10-18 09:00:00 12 3 Este 6 Este 0 954.9 -0.1 92
2019-10-18 08:00:00 10.6 4 Sudeste 6 Sudeste 0 954.9 0 95
2019-10-18 07:00:00 10.6 5 Este 7 Este 0 954.7 -0.8 92
2019-10-18 06:00:00 11.1 5 Sudeste 7 Este 0 955 -0.6 90
2019-10-18 05:00:00 11 5 Este 8 Este 0 954.9 -1.2 88
2019-10-18 04:00:00 12 3 Sudeste 6 Este 0 955.5 -0.6 85
2019-10-18 03:00:00 12.1 2 Sudeste 7 Este 0 955.6 -0.7 82
2019-10-18 02:00:00 12.3 3 Sudeste 5 Este 0 956.1 -0.1 79
2019-10-18 01:00:00 12.9 4 Este 7 Este 0 956.1 0.4 76
2019-10-18 00:00:00 13.3 3 Sudeste 6 Este 0 956.3 0.7 73
2019-10-17 23:00:00 14.2 2 Sudeste 5 Este 0 956.2 0.9 69
2019-10-17 22:00:00 16.6 2 Este 13 Sur 0 955.7 0.7 60
2019-10-17 21:00:00 18.8 6 Sudoeste 13 Sudoeste 0 955.6 0.8 53
2019-10-17 20:00:00 19.7 3 Sudoeste 12 Oeste 0 955.3 0.3 48
2019-10-17 19:00:00 21.1 3 Sudoeste 19 Oeste 0 955 -0.3 44
2019-10-17 18:00:00 23.5 7 Sudoeste 24 Oeste 0 954.8 -0.9 39
2019-10-17 17:00:00 23.7 9 Oeste 21 Oeste 0 955 -1.5 37
2019-10-17 16:00:00 23.5 7 Noroeste 17 Noroeste 0 955.3 -1.4 41
2019-10-17 15:00:00 23.4 3 Sudeste 16 Sudoeste 0 955.7 -1.2 38
2019-10-17 14:00:00 21.9 4 Sudoeste 18 Oeste 0 956.5 -0.4 38
2019-10-17 13:00:00 21 8 Oeste 18 Oeste 0 956.7 0 38
2019-10-17 12:00:00 19.5 6 Oeste 15 Oeste 0 956.9 0.9 44
2019-10-17 11:00:00 16.1 0 Calma 9 Sudoeste 0 956.9 1.2 58
2019-10-17 10:00:00 12.7 4 Este 8 Este 0 956.7 1.5 70
2019-10-17 09:00:00 7.2 4 Sudeste 8 Este 0 956 0.9 89
2019-10-17 08:00:00 6.2 4 Este 9 Este 0 955.7 0.8 86
2019-10-17 07:00:00 6.2 5 Sudeste 6 Sudeste 0 955.2 0.2 88
2019-10-17 06:00:00 6.2 3 Este 7 Este 0 955.1 -0.4 85
2019-10-17 05:00:00 7.3 3 Sudeste 7 Este 0 954.9 -0.3 82
2019-10-17 04:00:00 7.7 5 Este 9 Este 0 955 -0.8 80
2019-10-17 03:00:00 8.3 5 Este 7 Este 0 955.5 -0.6 76
2019-10-17 02:00:00 8.7 5 Este 7 Este 0 955.2 -0.6 71
2019-10-17 01:00:00 10.1 4 Sudeste 8 Sudeste 0 955.8 0.2 66
2019-10-17 00:00:00 10.5 4 Este 10 Norte 0 956.1 0.8 62
2019-10-16 23:00:00 10.1 2 Este 6 Sudeste 0 955.8 0.8 60
2019-10-16 22:00:00 11.4 0 Calma 3 Este 0 955.6 1.2 56
2019-10-16 21:00:00 13.6 2 Sudeste 5 Sur 0 955.3 0.7 48
2019-10-16 20:00:00 17.7 2 Sur 12 Oeste 0 955 0.4 37
2019-10-16 19:00:00 19.9 6 Sudoeste 14 Sur 0 954.4 -0.6 33
2019-10-16 18:00:00 21.8 6 Sudoeste 22 Sudoeste 0 954.6 -1.1 28
2019-10-16 17:00:00 23.3 6 Noroeste 17 Oeste 0 954.6 -2.1 24
2019-10-16 16:00:00 22.7 8 Sudoeste 19 Sudoeste 0 955 -2.1 26
2019-10-16 15:00:00 22.2 6 Oeste 12 Oeste 0 955.7 -1.9 28
2019-10-16 14:00:00 21.1 3 Sudoeste 14 Noroeste 0 956.7 -1 30
2019-10-16 13:00:00 19.6 3 Sudoeste 14 Noroeste 0 957.1 -0.2 34
2019-10-16 12:00:00 17.7 5 Oeste 10 Oeste 0 957.6 0.7 41
2019-10-16 11:00:00 14.3 5 Este 9 Este 0 957.7 1 51
2019-10-16 10:00:00 10.6 3 Sudeste 7 Este 0 957.3 0.8 71
2019-10-16 09:00:00 6 4 Este 6 Sudeste 0 956.9 0.3 85
2019-10-16 08:00:00 5.3 5 Este 8 Este 0 956.7 -0.2 85
2019-10-16 07:00:00 5.8 5 Sudeste 7 Sudeste 0 956.5 -0.7 83
2019-10-16 06:00:00 6.1 4 Sudeste 9 Este 0 956.6 -1 81
2019-10-16 05:00:00 6.4 5 Sudeste 7 Este 0 956.9 -0.8 79
2019-10-16 04:00:00 6.2 4 Sudeste 6 Este 0 957.2 -0.8 80
2019-10-16 03:00:00 6.7 4 Este 9 Este 0 957.6 -0.6 80
2019-10-16 02:00:00 7.4 5 Este 7 Este 0 957.7 -0.2 78
2019-10-16 01:00:00 7.8 4 Sudeste 5 Este 0 958 0.3 76
2019-10-16 00:00:00 9.3 0 Calma 8 Este 0 958.2 0.9 68
2019-10-15 23:00:00 11.3 5 Este 12 Nordeste 0 957.9 1 62
2019-10-15 22:00:00 13.1 6 Nordeste 15 Nordeste 0 957.7 0.9 52
2019-10-15 21:00:00 12.2 3 Este 10 Norte 0 957.3 0.6 53
2019-10-15 20:00:00 14.9 3 Norte 12 Norte 0 956.9 0.3 39
2019-10-15 19:00:00 17.2 4 Norte 18 Noroeste 0 956.8 -0.2 34
2019-10-15 18:00:00 18.9 6 Norte 17 Noroeste 0 956.7 -0.8 33
2019-10-15 17:00:00 19 5 Norte 19 Noroeste 0 956.6 -1.5 32
2019-10-15 16:00:00 19.1 3 Norte 18 Nordeste 0 957 -1.3 37
2019-10-15 15:00:00 17.7 4 Noroeste 24 Nordeste 0 957.5 -1.1 46
2019-10-15 14:00:00 15.8 6 Noroeste 18 Noroeste 0 958.1 -0.3 52
2019-10-15 13:00:00 16.1 6 Norte 21 Norte 0 958.3 0.2 50
2019-10-15 12:00:00 13.8 6 Nordeste 17 Nordeste 0 958.6 1 61
2019-10-15 11:00:00 11.5 5 Norte 14 Norte 0 958.4 1.2 79
2019-10-15 10:00:00 7.9 0 Calma 5 Este 0 958.1 1 96
2019-10-15 09:00:00 3.5 0 Calma 2 Este 0 957.6 0.6 96
2019-10-15 08:00:00 4.1 0 Calma 5 Sudeste 0.1 957.2 0.5 94
2019-10-15 07:00:00 4.5 3 Sudeste 6 Este 0 957.1 0.2 95
2019-10-15 06:00:00 4.8 3 Este 7 Norte 0 957 0 93
2019-10-15 05:00:00 6.8 5 Norte 12 Norte 0 956.7 -0.1 88
2019-10-15 04:00:00 6.3 0 Calma 6 Sudoeste 0 956.9 0.5 91
2019-10-15 03:00:00 7.8 3 Oeste 16 Noroeste 0 957 0.9 88
2019-10-15 02:00:00 8.4 4 Noroeste 9 Oeste 0 956.8 1.2 90
2019-10-15 01:00:00 9.3 0 Calma 14 Noroeste 0 956.4 1.3 91
2019-10-15 00:00:00 10.9 5 Noroeste 17 Noroeste 0 956.1 1.5 89
2019-10-14 23:00:00 11.1 4 Noroeste 17 Noroeste 0 955.6 1.7 89
2019-10-14 22:00:00 12.1 4 Noroeste 16 Noroeste 0 955.1 1.9 86
2019-10-14 21:00:00 12.9 6 Noroeste 21 Noroeste 0.1 954.6 2.4 88
2019-10-14 20:00:00 13.2 5 Noroeste 36 Oeste 1.3 953.9 1.9 90
2019-10-14 19:00:00 15 12 Oeste 32 Oeste 0 953.2 1.3 77
2019-10-14 18:00:00 19.1 17 Oeste 28 Oeste 0 952.2 0.2 45
2019-10-14 17:00:00 19.7 19 Oeste 39 Noroeste 0 952 -0.6 41
2019-10-14 16:00:00 20.4 15 Oeste 37 Noroeste 0 951.9 -0.8 41
2019-10-14 15:00:00 19.7 19 Oeste 36 Noroeste 0 952 -0.6 48
2019-10-14 14:00:00 19.1 15 Oeste 32 Oeste 0 952.6 0.2 51
2019-10-14 13:00:00 19.9 10 Sudoeste 29 Oeste 0 952.7 1.1 52
2019-10-14 12:00:00 16.9 13 Oeste 22 Oeste 0 952.6 1.8 67
2019-10-14 11:00:00 15.8 13 Oeste 22 Oeste 0 952.4 2.5 79
2019-10-14 10:00:00 15.2 6 Oeste 22 Oeste 0 951.6 1.7 86
2019-10-14 09:00:00 15.3 14 Oeste 31 Sudoeste 0 950.8 0.8 91
2019-10-14 08:00:00 15.8 9 Sudoeste 26 Sudoeste 0.5 949.9 0.4 93
2019-10-14 07:00:00 15.6 6 Sudoeste 26 Sudoeste 0 949.9 1.1 87
2019-10-14 06:00:00 16 8 Oeste 26 Oeste 0 950 1 81
2019-10-14 05:00:00 16.3 9 Sudoeste 44 Oeste 0 949.5 -0.1 75
2019-10-14 04:00:00 17.6 12 Sur 24 Sur 0 948.8 -0.9 68
2019-10-14 03:00:00 18.8 6 Sudoeste 27 Sudoeste 0 949 -0.8 68
2019-10-14 02:00:00 17.2 3 Sur 14 Sudoeste 0 949.6 -0.3 68
2019-10-14 01:00:00 16 0 Calma 6 Sudoeste 0 949.7 -0.1 71
2019-10-14 00:00:00 16 3 Este 7 Este 0 949.8 -0.3 71
2019-10-13 23:00:00 16.7 3 Este 6 Este 0 949.9 -0.3 68
2019-10-13 22:00:00 17.9 5 Este 7 Este 0 949.8 -0.4 63
2019-10-13 21:00:00 19.9 4 Este 6 Este 0 950.1 -0.4 56
2019-10-13 20:00:00 22.3 3 Sudeste 10 Sur 0 950.2 -0.6 47
2019-10-13 19:00:00 24.8 6 Sudoeste 21 Oeste 0 950.2 -1 40
2019-10-13 18:00:00 26 8 Sudoeste 27 Oeste 0 950.5 -1 37
2019-10-13 17:00:00 26 8 Sudoeste 27 Oeste 0 950.8 -1.5 38
2019-10-13 16:00:00 26.1 10 Sudoeste 27 Sudoeste 0 951.2 -1.8 39
2019-10-13 15:00:00 25.7 7 Sur 25 Sur 0 951.5 -1.7 40
2019-10-13 14:00:00 24.2 6 Sur 26 Sudoeste 0 952.3 -1.2 48
2019-10-13 13:00:00 22.7 6 Sur 21 Sudoeste 0 953 -0.2 54
2019-10-13 12:00:00 20.8 3 Sur 14 Sur 0 953.2 0.5 60
2019-10-13 11:00:00 18.3 6 Sudoeste 17 Sudoeste 0 953.5 1.2 71
2019-10-13 10:00:00 17 5 Sudoeste 14 Oeste 0 953.2 0.8 76
2019-10-13 09:00:00 16.3 5 Sudoeste 14 Sur 0 952.7 0.5 80
2019-10-13 08:00:00 16.1 3 Sudoeste 12 Sudoeste 0 952.3 0.2 81
2019-10-13 07:00:00 15.9 4 Sur 17 Sur 0 952.4 -0.1 85
2019-10-13 06:00:00 14.9 3 Sur 13 Sur 0 952.2 -0.4 89
2019-10-13 05:00:00 14.6 4 Sur 13 Sur 0 952.1 -0.6 92
2019-10-13 04:00:00 14.2 3 Sudeste 7 Sur 0 952.5 -0.4 93
2019-10-13 03:00:00 14.9 0 Calma 7 Sudoeste 0 952.6 -0.5 91
2019-10-13 02:00:00 16.1 3 Sur 12 Sudoeste 0 952.7 0.1 90
2019-10-13 01:00:00 16.5 4 Sudoeste 15 Sudoeste 0 952.9 0.5 90
2019-10-13 00:00:00 17.4 4 Sur 19 Sudeste 0 953.1 0.9 85
2019-10-12 23:00:00 19 6 Sur 13 Sur 0 952.6 0.8 71
2019-10-12 22:00:00 20.5 5 Sudoeste 17 Sudoeste 0 952.4 1 65
2019-10-12 21:00:00 21.4 3 Sur 15 Oeste 0 952.2 0.9 64
2019-10-12 20:00:00 22.8 4 Oeste 22 Sudoeste 0 951.8 0.1 59
2019-10-12 19:00:00 25.2 8 Sudoeste 23 Sudoeste 0 951.4 -0.2 47
2019-10-12 18:00:00 27.3 9 Sudoeste 20 Sudoeste 0 951.3 -0.8 37
2019-10-12 17:00:00 28.6 7 Sudoeste 23 Sudoeste 0 951.7 -1.1 32
2019-10-12 16:00:00 29.3 7 Sur 23 Sudoeste 0 951.6 -1.3 28
2019-10-12 15:00:00 29.4 10 Sudeste 27 Sudeste 0 952.1 -0.8 27
2019-10-12 14:00:00 29.1 10 Sur 25 Sur 0 952.8 -0.4 25
2019-10-12 13:00:00 27.6 14 Sudeste 35 Sur 0 952.9 0.3 27
2019-10-12 12:00:00 26 8 Sudeste 25 Sudeste 0 952.9 0.8 32
2019-10-12 11:00:00 24.1 12 Sudeste 27 Sur 0 953.2 1.2 39
2019-10-12 10:00:00 22.3 8 Sudeste 19 Sur 0 952.6 0.5 40
2019-10-12 09:00:00 20.3 6 Este 14 Este 0 952.1 -0.1 46
2019-10-12 08:00:00 20.2 7 Este 11 Este 0 952 -0.3 47
2019-10-12 07:00:00 20.1 7 Este 12 Este 0 952.1 -0.9 47
2019-10-12 06:00:00 19 6 Este 10 Este 0 952.2 -1.4 52
2019-10-12 05:00:00 17.4 4 Sudeste 6 Este 0 952.3 -1.5 57
2019-10-12 04:00:00 17.3 3 Este 6 Sudeste 0 953 -1 59
2019-10-12 03:00:00 18 2 Noroeste 6 Este 0 953.6 -1 56
2019-10-12 02:00:00 18.4 4 Este 6 Este 0 953.8 -0.8 55
2019-10-12 01:00:00 17.5 4 Sudeste 6 Este 0 954 -0.4 56
2019-10-12 00:00:00 18.2 4 Este 6 Este 0 954.6 0.6 52
2019-10-11 23:00:00 19.1 2 Sudeste 6 Oeste 0 954.6 1 49
2019-10-11 22:00:00 19.8 0 Calma 6 Oeste 0 954.4 0.8 48
2019-10-11 21:00:00 20.9 2 Este 5 Este 0 954 0.1 44
2019-10-11 20:00:00 23.1 2 Sur 8 Sur 0 953.6 -0.6 38
2019-10-11 19:00:00 24.9 4 Sur 13 Sur 0 953.6 -0.9 35
2019-10-11 18:00:00 26 4 Sudeste 20 Sur 0 953.9 -1 34
2019-10-11 17:00:00 26.5 5 Sur 15 Sudeste 0 954.2 -1.4 30
2019-10-11 16:00:00 26.3 5 Sur 22 Sudoeste 0 954.5 -1.7 32
2019-10-11 15:00:00 25.2 6 Sur 17 Sur 0 954.9 -1.3 34
2019-10-11 14:00:00 24.6 6 Sur 20 Sur 0 955.6 -0.5 33
2019-10-11 13:00:00 25.3 8 Sudeste 22 Sur 0 956.2 0.5 34
2019-10-11 12:00:00 24.5 9 Sudeste 22 Sudeste 0 956.2 1.2 36
2019-10-11 11:00:00 22.4 10 Sudeste 24 Este 0 956.1 1.3 42
2019-10-11 10:00:00 20.4 9 Sudeste 21 Este 0 955.7 1 53
2019-10-11 09:00:00 19.6 9 Sudeste 26 Este 0 955 0.4 60
2019-10-11 08:00:00 18.9 10 Sudeste 25 Sudeste 0 954.8 0.1 62
2019-10-11 07:00:00 18.6 10 Sudeste 28 Este 0 954.7 0.1 70
2019-10-11 06:00:00 18.2 8 Sudeste 23 Este 0 954.6 -0.1 73
2019-10-11 05:00:00 17.5 6 Sudeste 17 Sudeste 0 954.7 -0.2 77
2019-10-11 04:00:00 17.7 10 Este 17 Este 0 954.6 -0.4 75
2019-10-11 03:00:00 17.7 6 Este 11 Sudeste 0 954.7 -0.3 66
2019-10-11 02:00:00 18.8 5 Este 10 Este 0 954.9 0.3 55
2019-10-11 01:00:00 20.6 5 Este 18 Este 0 955 0.5 48
2019-10-11 00:00:00 21.6 6 Sudeste 15 Sudeste 0 955 0.8 43
2019-10-10 23:00:00 20.9 5 Este 15 Este 0 954.6 0.7 42
2019-10-10 22:00:00 19.3 4 Sudeste 7 Este 0 954.5 0.4 51
2019-10-10 21:00:00 21.1 5 Este 7 Este 0 954.2 0.4 50
2019-10-10 20:00:00 24.6 3 Este 9 Este 0 953.9 -0.1 42
2019-10-10 19:00:00 28.6 5 Sudeste 14 Sudeste 0 954.1 0 34
2019-10-10 18:00:00 29.4 6 Sudeste 19 Sudeste 0 953.8 -0.5 34
2019-10-10 17:00:00 29.9 6 Sudeste 18 Sudeste 0 954 -0.9 34
2019-10-10 16:00:00 30.2 7 Sudeste 20 Sur 0 954.1 -1.1 35
2019-10-10 15:00:00 29.8 7 Sur 21 Sur 0 954.3 -0.9 33
2019-10-10 14:00:00 28.8 6 Sudeste 19 Sur 0 954.9 -0.1 34
2019-10-10 13:00:00 27.6 6 Sudeste 21 Sur 0 955.2 0.8 36
2019-10-10 12:00:00 26 7 Sur 21 Sudeste 0 955.2 1.5 38
2019-10-10 11:00:00 23.2 7 Sudeste 15 Sudeste 0 955 1.5 44
2019-10-10 10:00:00 19.9 5 Este 8 Este 0 954.4 1.2 39
2019-10-10 09:00:00 14.5 3 Sudeste 4 Sur 0 953.7 0.6 48
2019-10-10 08:00:00 14.4 3 Sudeste 8 Este 0 953.5 0.4 45
2019-10-10 07:00:00 14.9 5 Este 8 Este 0 953.2 -0.1 44
2019-10-10 06:00:00 15.5 6 Este 9 Este 0 953.1 -0.4 44
2019-10-10 05:00:00 16 3 Este 9 Este 0 953.1 -0.5 43
2019-10-10 04:00:00 16.4 4 Sudeste 8 Este 0 953.3 -0.3 48
2019-10-10 03:00:00 16.5 5 Este 8 Este 0 953.5 0 55
2019-10-10 02:00:00 18.2 4 Este 8 Sudeste 0 953.6 0 53
2019-10-10 01:00:00 19.8 4 Sudeste 10 Nordeste 0 953.6 0.3 49
2019-10-10 00:00:00 18.5 3 Sudeste 6 Sudeste 0 953.5 0.6 60
2019-10-09 23:00:00 18.8 0 Calma 6 Este 0 953.6 0.9 61
2019-10-09 22:00:00 20.4 4 Sudeste 6 Este 0 953.3 0.9 56
2019-10-09 21:00:00 22.2 4 Sudeste 7 Sur 0 952.9 0.7 50
2019-10-09 20:00:00 27 4 Sur 16 Sudoeste 0 952.7 0.1 37
2019-10-09 19:00:00 29.5 8 Sudoeste 21 Oeste 0 952.4 -0.5 33
2019-10-09 18:00:00 31.4 6 Sudoeste 21 Oeste 0 952.2 -0.9 27
2019-10-09 17:00:00 31.9 7 Oeste 24 Oeste 0 952.6 -1 25
2019-10-09 16:00:00 31.9 4 Sudoeste 18 Oeste 0 952.9 -1.3 27
2019-10-09 15:00:00 31.5 3 Sudeste 15 Sudoeste 0 953.1 -1.1 29
2019-10-09 14:00:00 30.7 4 Oeste 13 Noroeste 0 953.6 -0.5 32
2019-10-09 13:00:00 28.8 4 Sur 13 Sudoeste 0 954.2 0.5 36
2019-10-09 12:00:00 26.6 6 Sudoeste 12 Oeste 0 954.2 0.7 42
2019-10-09 11:00:00 22.5 4 Este 7 Este 0 954.1 0.9 53
2019-10-09 10:00:00 19.6 4 Este 7 Sudeste 0 953.7 1.1 63
2019-10-09 09:00:00 13.6 4 Sudeste 6 Sudeste 0 953.5 1 82
2019-10-09 08:00:00 13.4 2 Sudeste 7 Este 0 953.2 0.6 80
2019-10-09 07:00:00 14.2 4 Sudeste 7 Este 0 952.6 -0.2 75
2019-10-09 06:00:00 14.7 3 Sudeste 7 Este 0 952.5 -0.8 73
2019-10-09 05:00:00 15.7 0 Calma 7 Este 0 952.6 -0.9 66
2019-10-09 04:00:00 16.6 5 Sudeste 8 Este 0 952.8 -1.1 63
2019-10-09 03:00:00 16.3 3 Sudeste 7 Sudeste 0 953.3 -0.8 58
2019-10-09 02:00:00 16.4 4 Este 7 Norte 0 953.5 -0.3 58
2019-10-09 01:00:00 16.5 3 Sudeste 5 Este 0 953.9 0.4 60
2019-10-09 00:00:00 17.4 3 Sudeste 5 Este 0 954.1 0.6 56
2019-10-08 23:00:00 18.8 4 Sudeste 6 Este 0 953.8 0.5 51
2019-10-08 22:00:00 20.2 0 Calma 4 Oeste 0 953.5 0.3 45
2019-10-08 21:00:00 22.4 2 Sudeste 10 Sur 0 953.5 0.1 40
2019-10-08 20:00:00 27.1 4 Sur 12 Sur 0 953.3 -0.2 30
2019-10-08 19:00:00 30.3 6 Sur 13 Sur 0 953.2 -0.8 26
2019-10-08 18:00:00 31.6 5 Sur 17 Sur 0 953.4 -0.9 25
2019-10-08 17:00:00 31.6 6 Sudeste 19 Sur 0 953.5 -1.3 25
2019-10-08 16:00:00 31.9 6 Sudeste 18 Sudeste 0 954 -1.2 23
2019-10-08 15:00:00 32 7 Sur 19 Sur 0 954.3 -1.2 23
2019-10-08 14:00:00 31.4 6 Sudeste 17 Sur 0 954.8 -0.5 24
2019-10-08 13:00:00 30.8 5 Sur 16 Sur 0 955.2 0.4 25
2019-10-08 12:00:00 28.9 6 Sur 15 Sur 0 955.5 0.9 28
2019-10-08 11:00:00 26.1 4 Este 18 Este 0 955.3 1 32
2019-10-08 10:00:00 22.1 8 Este 13 Este 0 954.8 1.1 40
2019-10-08 09:00:00 14.6 0 Calma 6 Este 0 954.6 1 58
2019-10-08 08:00:00 14.5 3 Sudeste 8 Sudeste 0 954.3 0.4 55
2019-10-08 07:00:00 15.5 4 Sudeste 8 Este 0 953.7 -0.3 50
2019-10-08 06:00:00 15.8 5 Este 10 Este 0 953.6 -0.7 50
2019-10-08 05:00:00 16 6 Este 9 Este 0 953.9 -0.3 50
2019-10-08 04:00:00 16.3 4 Este 9 Sudeste 0 954 -0.5 49
2019-10-08 03:00:00 17.4 5 Este 9 Este 0 954.3 -0.4 45
2019-10-08 02:00:00 18.3 5 Sudeste 8 Sudeste 0 954.2 -0.3 41
2019-10-08 01:00:00 16.8 5 Sudeste 8 Este 0 954.5 0 44
2019-10-08 00:00:00 17 4 Sudeste 6 Sudeste 0 954.7 0.7 44
2019-10-07 23:00:00 17.9 5 Este 7 Sudeste 0 954.5 0.4 43
2019-10-07 22:00:00 19.3 4 Sudeste 7 Este 0 954.5 0.6 40
2019-10-07 21:00:00 21.3 2 Sudeste 6 Sur 0 954 0 34
2019-10-07 20:00:00 26.3 0 Calma 11 Este 0 954.1 0.2 26
2019-10-07 19:00:00 31.5 4 Nordeste 15 Nordeste 0 953.9 -0.4 18
2019-10-07 18:00:00 32.8 5 Noroeste 18 Noroeste 0 954 -0.8 16
2019-10-07 17:00:00 32.8 4 Nordeste 14 Nordeste 0 953.9 -1.3 16
2019-10-07 16:00:00 32.8 4 Nordeste 14 Este 0 954.3 -1.2 17
2019-10-07 15:00:00 32.1 4 Sudeste 11 Este 0 954.8 -0.9 17
2019-10-07 14:00:00 31.2 2 Este 13 Nordeste 0 955.2 -0.6 18
2019-10-07 13:00:00 28.8 6 Este 14 Este 0 955.5 0.4 22
2019-10-07 12:00:00 26.9 4 Nordeste 12 Norte 0 955.7 0.8 26
2019-10-07 11:00:00 23.4 3 Norte 12 Este 0 955.8 1.1 31
2019-10-07 10:00:00 19.9 4 Este 9 Nordeste 0 955.1 0.9 40
2019-10-07 09:00:00 12.9 4 Este 8 Este 0 954.9 0.8 62
2019-10-07 08:00:00 12.1 3 Este 5 Este 0 954.7 0.4 67
2019-10-07 07:00:00 13 2 Este 7 Nordeste 0 954.2 -0.8 61
2019-10-07 06:00:00 12.4 3 Sudeste 8 Este 0 954.1 -1.4 63
2019-10-07 05:00:00 13.7 4 Este 10 Sur 0 954.3 -1.4 61
2019-10-07 04:00:00 13.1 3 Sudeste 7 Este 0 955 -1 59
2019-10-07 03:00:00 13.6 0 Calma 7 Este 0 955.5 -0.6 56
2019-10-07 02:00:00 13.8 5 Sudeste 7 Sudeste 0 955.7 -0.5 53
2019-10-07 01:00:00 13.9 3 Sudeste 6 Sudeste 0 956 0.3 51
2019-10-07 00:00:00 14.3 4 Este 7 Este 0 956.1 0.4 51
2019-10-06 23:00:00 15.7 5 Este 8 Este 0 956.2 1.1 51
2019-10-06 22:00:00 16.9 3 Sudeste 7 Este 0 955.7 0.8 49
2019-10-06 21:00:00 19.8 4 Sudeste 10 Sur 0 955.7 0.7 44
2019-10-06 20:00:00 25 0 Calma 13 Oeste 0 955.1 0 32
2019-10-06 19:00:00 28.9 5 Noroeste 19 Noroeste 0 954.9 -0.6 17
2019-10-06 18:00:00 30.8 9 Noroeste 17 Noroeste 0 955 -0.7 16
2019-10-06 17:00:00 31.7 0 Calma 21 Norte 0 955.1 -1.1 18
2019-10-06 16:00:00 30.5 9 Oeste 20 Noroeste 0 955.5 -0.9 17
2019-10-06 15:00:00 30.8 4 Sudoeste 14 Sudoeste 0 955.7 -0.9 17
2019-10-06 14:00:00 29.7 0 Calma 20 Este 0 956.2 -0.2 19
2019-10-06 13:00:00 28.1 4 Norte 13 Noroeste 0 956.4 0.4 25
2019-10-06 12:00:00 25.7 4 Sudoeste 12 Este 0 956.6 1.3 33
2019-10-06 11:00:00 21.4 5 Este 10 Este 0 956.4 1.3 44
2019-10-06 10:00:00 16.3 0 Calma 9 Este 0 956 1.5 61
2019-10-06 09:00:00 10.5 6 Este 9 Este 0 955.3 0.6 78
2019-10-06 08:00:00 10.6 5 Este 12 Este 0 955.1 0.8 77
2019-10-06 07:00:00 11.4 6 Este 11 Este 0 954.5 -0.4 76
2019-10-06 06:00:00 10.8 5 Sudeste 9 Este 0 954.7 -0.5 76
2019-10-06 05:00:00 11.3 6 Este 12 Este 0 954.3 -0.6 75
2019-10-06 04:00:00 11.9 3 Este 6 Este 0 954.9 0.1 75
2019-10-06 03:00:00 12.1 3 Este 7 Este 0 955.2 0.5 69
2019-10-06 02:00:00 12.5 5 Este 7 Este 0 954.9 0.3 68
2019-10-06 01:00:00 13 4 Sudeste 7 Sudeste 0 954.8 0.5 66
2019-10-06 00:00:00 13.9 3 Sudeste 7 Este 0 954.7 1.1 62
2019-10-05 23:00:00 14.7 2 Sudeste 5 Sudeste 0 954.6 1.3 62
2019-10-05 22:00:00 16.9 3 Sudeste 5 Sudeste 0 954.3 1.3 56
2019-10-05 21:00:00 19.1 3 Este 6 Oeste 0 953.6 0.7 44
2019-10-05 20:00:00 24 0 Calma 12 Oeste 0 953.3 0.3 34
2019-10-05 19:00:00 26.9 6 Oeste 14 Oeste 0 953 -0.3 34
2019-10-05 18:00:00 27.3 5 Sudoeste 15 Oeste 0 952.9 -0.5 34
2019-10-05 17:00:00 27.8 7 Oeste 17 Oeste 0 953 -0.9 34
2019-10-05 16:00:00 27.8 5 Sudoeste 16 Oeste 0 953.3 -0.8 32
2019-10-05 15:00:00 28.5 3 Sur 15 Sudoeste 0 953.4 -0.5 33
2019-10-05 14:00:00 27.3 6 Sur 21 Noroeste 0 953.9 0.1 37
2019-10-05 13:00:00 26 5 Noroeste 18 Oeste 0 954.1 0.6 39
2019-10-05 12:00:00 23.8 2 Noroeste 9 Este 0 953.9 0.7 47
2019-10-05 11:00:00 21.2 6 Este 10 Este 0 953.8 0.9 56
2019-10-05 10:00:00 17.2 5 Este 8 Este 0 953.5 0.8 72
2019-10-05 09:00:00 12 4 Este 7 Sudeste 0 953.2 0.4 91
2019-10-05 08:00:00 11.9 5 Este 8 Este 0 952.9 0.1 89
2019-10-05 07:00:00 12.4 5 Este 8 Este 0 952.7 -0.4 86
2019-10-05 06:00:00 12.5 5 Este 8 Este 0 952.8 -0.4 87
2019-10-05 05:00:00 12.1 4 Este 7 Este 0 952.8 -0.3 85
2019-10-05 04:00:00 12.8 4 Este 6 Este 0 953.1 -0.3 79
2019-10-05 03:00:00 13.6 5 Sudeste 7 Sudeste 0 953.2 -0.2 79
2019-10-05 02:00:00 13.8 2 Este 8 Este 0 953.1 -0.6 75
2019-10-05 01:00:00 14.1 4 Este 7 Este 0 953.4 0 75
2019-10-05 00:00:00 15 3 Sudeste 6 Este 0 953.4 0.1 73
2019-10-04 23:00:00 16.4 4 Este 5 Este 0 953.7 0.7 68
2019-10-04 22:00:00 19.5 0 Calma 9 Sur 0 953.4 0.3 53
2019-10-04 21:00:00 22.5 4 Sur 12 Sudoeste 0 953.3 0.3 45
2019-10-04 20:00:00 24.7 3 Sur 14 Sudoeste 0 953 -0.1 37
2019-10-04 19:00:00 26.8 6 Sudoeste 14 Sudoeste 0 953.1 -0.5 32
2019-10-04 18:00:00 27.8 5 Sudoeste 18 Sudoeste 0 953 -1.2 31
2019-10-04 17:00:00 28 6 Sudoeste 21 Sudoeste 0 953.1 -1.6 31
2019-10-04 16:00:00 28.3 5 Sudoeste 20 Oeste 0 953.6 -1.3 31
2019-10-04 15:00:00 27.4 11 Oeste 22 Oeste 0 954.2 -1 28
2019-10-04 14:00:00 27 7 Sudoeste 19 Oeste 0 954.7 -0.4 31
2019-10-04 13:00:00 26.4 6 Sudoeste 17 Oeste 0 954.9 -0.2 32
2019-10-04 12:00:00 24.7 6 Sudoeste 13 Oeste 0 955.2 0.2 40
2019-10-04 11:00:00 21.7 0 Calma 8 Este 0 955.1 0.3 53
2019-10-04 10:00:00 17.5 6 Este 9 Este 0 955.1 0.4 67
2019-10-04 09:00:00 12.2 3 Sudeste 8 Este 0 955 0.5 87
2019-10-04 08:00:00 11.5 4 Sudeste 6 Este 0 954.8 0.1 84
2019-10-04 07:00:00 12.2 4 Este 8 Este 0 954.7 -0.4 78
2019-10-04 06:00:00 12.3 5 Este 9 Este 0 954.5 -0.9 70
2019-10-04 05:00:00 12.2 6 Este 9 Este 0 954.7 -1 67
2019-10-04 04:00:00 12.4 3 Este 7 Este 0 955.1 -0.6 59
2019-10-04 03:00:00 12.6 5 Este 8 Sudeste 0 955.4 -0.3 54
2019-10-04 02:00:00 12.7 4 Sudeste 7 Este 0 955.7 0 55
2019-10-04 01:00:00 12.5 4 Este 6 Este 0 955.7 0.2 57
2019-10-04 00:00:00 13.4 3 Sudeste 5 Este 0 955.7 0.5 56
2019-10-03 23:00:00 14.9 0 Calma 7 Sudeste 0 955.7 0.5 53
2019-10-03 22:00:00 16.9 3 Sudeste 8 Nordeste 0 955.5 0.6 50
2019-10-03 21:00:00 19.9 3 Sur 7 Sur 0 955.2 0 37
2019-10-03 20:00:00 25.9 3 Nordeste 18 Norte 0 955.2 -0.1 22
2019-10-03 19:00:00 28.4 9 Norte 20 Noroeste 0 954.9 -0.3 18
2019-10-03 18:00:00 29.6 7 Noroeste 19 Noroeste 0 955.2 -0.3 16
2019-10-03 17:00:00 30.1 8 Noroeste 23 Norte 0 955.3 -1 16
2019-10-03 16:00:00 28.4 10 Oeste 22 Norte 0 955.2 -1.4 21
2019-10-03 15:00:00 28.9 7 Noroeste 23 Oeste 0 955.5 -1.3 20
2019-10-03 14:00:00 27.6 4 Norte 18 Noroeste 0 956.3 -0.2 24
2019-10-03 13:00:00 26 10 Noroeste 23 Oeste 0 956.6 0.3 27
2019-10-03 12:00:00 23.9 7 Oeste 12 Noroeste 0 956.8 0.7 34
2019-10-03 11:00:00 -- -- -- -- -- -- -- -- --
2019-10-03 10:00:00 -- -- -- -- -- -- -- -- --
2019-10-03 09:00:00 10.2 2 Sudeste 7 Este 0 956.1 1 76
2019-10-03 08:00:00 10.2 4 Este 7 Este 0 955.4 0.6 74
2019-10-03 07:00:00 10.3 3 Sudeste 6 Este 0 955.1 0.2 73
2019-10-03 06:00:00 11.8 3 Este 6 Este 0 955.1 -0.1 68
2019-10-03 05:00:00 12.9 4 Este 6 Sudeste 0 954.8 -0.5 64
2019-10-03 04:00:00 14.3 3 Sudeste 12 Este 0 954.9 -0.7 55
2019-10-03 03:00:00 16.3 3 Este 21 Noroeste 0 955.2 -0.4 47
2019-10-03 02:00:00 17.7 10 Noroeste 19 Norte 0 955.3 -0.1 43
2019-10-03 01:00:00 13.8 0 Calma 9 Noroeste 0 955.6 0.6 50
2019-10-03 00:00:00 13.8 2 Este 6 Norte 0 955.6 1.1 50
2019-10-02 23:00:00 18.9 3 Norte 12 Noroeste 0 955.4 1 35
2019-10-02 22:00:00 18.6 0 Calma 13 Noroeste 0 955 0.7 34
2019-10-02 21:00:00 21.7 5 Noroeste 13 Noroeste 0 954.5 0.4 26
2019-10-02 20:00:00 24.6 5 Noroeste 14 Norte 0 954.4 0.1 19
2019-10-02 19:00:00 27.4 5 Noroeste 18 Oeste 0 954.3 -0.2 16
2019-10-02 18:00:00 27.4 9 Oeste 26 Oeste 0 954.1 -0.6 21
2019-10-02 17:00:00 28.2 8 Noroeste 23 Noroeste 0 954.3 -0.8 19
2019-10-02 16:00:00 27.5 12 Oeste 25 Noroeste 0 954.5 -0.8 22
2019-10-02 15:00:00 26.9 7 Norte 25 Noroeste 0 954.7 -0.8 27
2019-10-02 14:00:00 25.9 7 Norte 17 Norte 0 955.1 -0.2 29
2019-10-02 13:00:00 23.7 5 Norte 18 Noroeste 0 955.3 0.3 31
2019-10-02 12:00:00 20.9 6 Noroeste 17 Noroeste 0 955.5 1 46
2019-10-02 11:00:00 16.2 5 Oeste 12 Oeste 0 955.3 1.1 65
2019-10-02 10:00:00 12.4 5 Noroeste 8 Noroeste 0 955 0.9 83
2019-10-02 09:00:00 8.3 0 Calma 6 Este 0 954.5 0.6 90
2019-10-02 08:00:00 8.3 2 Sudeste 5 Este 0 954.2 0.5 88
2019-10-02 07:00:00 9.5 4 Nordeste 8 Nordeste 0 954.1 0.3 83
2019-10-02 06:00:00 11.5 3 Sudeste 10 Nordeste 0 953.9 -0.2 74
2019-10-02 05:00:00 14.5 4 Nordeste 21 Norte 0 953.7 -0.7 63
2019-10-02 04:00:00 15.4 5 Noroeste 22 Noroeste 0 953.8 -0.6 55
2019-10-02 03:00:00 16.2 8 Noroeste 29 Norte 0 954.1 -0.1 64
2019-10-02 02:00:00 17.3 9 Noroeste 23 Norte 0 954.4 0.2 62
2019-10-02 01:00:00 18.4 6 Noroeste 21 Noroeste 0 954.4 0.4 56
2019-10-02 00:00:00 18.9 8 Noroeste 19 Noroeste 0 954.2 0.7 54
2019-10-01 23:00:00 19.1 6 Noroeste 15 Noroeste 0 954.2 0.9 52
2019-10-01 22:00:00 20.1 5 Noroeste 17 Norte 0 954 1 49
2019-10-01 21:00:00 21.4 8 Noroeste 19 Noroeste 0 953.5 0.6 45
2019-10-01 20:00:00 23.3 9 Noroeste 30 Noroeste 0 953.3 0.2 40
2019-10-01 19:00:00 25.4 12 Noroeste 30 Noroeste 0 953 0.2 37
2019-10-01 18:00:00 26.5 12 Noroeste 31 Noroeste 0 952.9 -0.1 34
2019-10-01 17:00:00 27.2 16 Noroeste 34 Noroeste 0 953.1 -0.3 31
2019-10-01 16:00:00 28.1 17 Noroeste 32 Noroeste 0 952.8 -0.9 27
2019-10-01 15:00:00 28.1 9 Noroeste 27 Noroeste 0 953 -0.7 30
2019-10-01 14:00:00 26.4 9 Noroeste 25 Noroeste 0 953.4 0 33
2019-10-01 13:00:00 26.3 13 Norte 32 Norte 0 953.7 1 28
2019-10-01 12:00:00 24.4 12 Noroeste 23 Noroeste 0 953.7 1.4 34
2019-10-01 11:00:00 21.5 7 Norte 19 Norte 0 953.4 1.4 44
2019-10-01 10:00:00 18.9 3 Norte 8 Norte 0 952.7 0.9 55
2019-10-01 09:00:00 14.6 0 Calma 12 Norte 0 952.3 0.8 71
2019-10-01 08:00:00 16.5 5 Noroeste 16 Noroeste 0 952 0.6 59
2019-10-01 07:00:00 15.5 0 Calma 8 Norte 0 951.8 -0.5 58
2019-10-01 06:00:00 15.5 5 Este 10 Este 0 951.5 -1.2 59
2019-10-01 05:00:00 14.9 4 Este 7 Este 0 951.4 -1.2 59
2019-10-01 04:00:00 15.3 3 Este 14 Norte 0 952.3 -0.4 59
2019-10-01 03:00:00 13.8 3 Este 6 Este 0 952.7 0 68
2019-10-01 02:00:00 14.6 4 Sudeste 5 Este 0 952.6 -0.3 64
2019-10-01 01:00:00 14.9 4 Este 5 Este 0 952.7 -0.1 63
2019-10-01 00:00:00 16.6 3 Sudeste 5 Sudeste 0 952.7 0.3 58
2019-09-30 23:00:00 18 0 Calma 3 Sudeste 0 952.9 0.4 54
2019-09-30 22:00:00 21.2 2 Oeste 10 Sur 0 952.8 0 45
2019-09-30 21:00:00 24.9 6 Sur 13 Sur 0 952.4 -0.8 38
2019-09-30 20:00:00 26.7 4 Sur 14 Sudoeste 0 952.5 -0.9 30
2019-09-30 19:00:00 28.9 5 Sudoeste 22 Sudoeste 0 952.8 -0.7 28
2019-09-30 18:00:00 30.2 7 Sudoeste 20 Sudoeste 0 953.2 -0.8 24
2019-09-30 17:00:00 30.8 7 Sudoeste 21 Sudoeste 0 953.4 -1.2 24
2019-09-30 16:00:00 31.4 6 Oeste 19 Sudoeste 0 953.5 -1.4 25
2019-09-30 15:00:00 30.7 8 Sudoeste 17 Sudoeste 0 954 -1.2 28
2019-09-30 14:00:00 30.3 6 Oeste 16 Oeste 0 954.6 -0.4 23
2019-09-30 13:00:00 29.2 6 Oeste 14 Sur 0 954.9 0.1 23
2019-09-30 12:00:00 27.2 4 Sudoeste 10 Oeste 0 955.2 0.7 27
2019-09-30 11:00:00 23.9 2 Oeste 5 Oeste 0 955 1 30
2019-09-30 10:00:00 18.7 0 Calma 7 Este 0 954.8 0.9 49
2019-09-30 09:00:00 12.7 6 Este 9 Este 0 954.5 0.5 70
2019-09-30 08:00:00 12.2 4 Sudeste 7 Este 0 954 -0.1 73
2019-09-30 07:00:00 12.9 3 Sudeste 6 Este 0 953.9 -0.4 70
2019-09-30 06:00:00 13.1 4 Sudeste 7 Este 0 954 -0.8 80
2019-09-30 05:00:00 13 5 Este 7 Este 0 954.1 -0.8 83
2019-09-30 04:00:00 13.5 3 Sudeste 6 Este 0 954.3 -0.6 79
2019-09-30 03:00:00 14.3 2 Sudeste 5 Este 0 954.8 -0.1 77
2019-09-30 02:00:00 15.1 2 Sudeste 7 Este 0 954.9 -0.1 74
2019-09-30 01:00:00 16.1 4 Sudeste 6 Este 0 954.9 0 71
2019-09-30 00:00:00 17.3 5 Este 7 Este 0 954.9 0.7 66
2019-09-29 23:00:00 18.5 3 Sudeste 4 Sudeste 0 955 0.8 61
2019-09-29 22:00:00 21.8 0 Calma 12 Sudoeste 0 954.9 0.7 48
2019-09-29 21:00:00 25 6 Sur 13 Sur 0 954.2 -0.3 38
2019-09-29 20:00:00 27.6 4 Sur 14 Sudoeste 0 954.2 -0.5 27
2019-09-29 19:00:00 29.9 5 Sudoeste 18 Sur 0 954.2 -0.7 23
2019-09-29 18:00:00 31 4 Sudoeste 21 Oeste 0 954.5 -0.9 22
2019-09-29 17:00:00 31.8 4 Sudoeste 22 Oeste 0 954.7 -1.3 22
2019-09-29 16:00:00 31.5 3 Sudoeste 18 Oeste 0 954.9 -1.2 22
2019-09-29 15:00:00 30.9 4 Sudoeste 19 Sudoeste 0 955.4 -0.8 22
2019-09-29 14:00:00 30.5 4 Sudoeste 17 Sudoeste 0 956 0 23
2019-09-29 13:00:00 28.9 5 Oeste 16 Oeste 0 956.1 0.7 26
2019-09-29 12:00:00 27.4 5 Oeste 13 Oeste 0 956.2 1.1 28
2019-09-29 11:00:00 25.5 4 Sudoeste 9 Sudoeste 0 956 1.4 32
2019-09-29 10:00:00 20.2 3 Este 6 Este 0 955.4 0.9 43
2019-09-29 09:00:00 13.9 5 Este 7 Este 0 955.1 0.6 63
2019-09-29 08:00:00 13 5 Este 7 Sudeste 0 954.6 -0.2 65
2019-09-29 07:00:00 13.6 4 Sudeste 6 Este 0 954.5 -0.3 61
2019-09-29 06:00:00 14 5 Sudeste 8 Este 0 954.5 -0.7 59
2019-09-29 05:00:00 14.2 5 Sudeste 8 Sudeste 0 954.8 -0.2 60
2019-09-29 04:00:00 14.9 5 Este 8 Este 0 954.8 -0.5 58
2019-09-29 03:00:00 14.9 5 Este 8 Este 0 955.2 -0.2 59
2019-09-29 02:00:00 15.7 5 Este 8 Este 0 955 -0.3 57
2019-09-29 01:00:00 15.9 5 Este 6 Este 0 955.3 0.3 57
2019-09-29 00:00:00 16.2 3 Este 6 Este 0 955.4 0.9 52
2019-09-28 23:00:00 17.2 0 Calma 5 Este 0 955.3 0.6 46
2019-09-28 22:00:00 18.9 0 Calma 4 Nordeste 0 955 0.2 41
2019-09-28 21:00:00 21.3 3 Este 6 Sudoeste 0 954.5 -0.4 34
2019-09-28 20:00:00 28.5 2 Sudoeste 10 Sudoeste 0 954.7 -0.2 20
2019-09-28 19:00:00 30.5 5 Sudoeste 19 Sudoeste 0 954.8 -0.6 18
2019-09-28 18:00:00 31.8 4 Sudoeste 29 Sudoeste 0 954.9 -0.8 19
2019-09-28 17:00:00 31.8 7 Oeste 17 Oeste 0 954.9 -1.4 17
2019-09-28 16:00:00 31.9 5 Sudeste 22 Sur 0 955.4 -1.2 19
2019-09-28 15:00:00 31.3 4 Sur 19 Sudoeste 0 955.7 -1.1 22
2019-09-28 14:00:00 31.3 3 Sur 14 Sur 0 956.3 -0.3 24
2019-09-28 13:00:00 29.9 5 Sudeste 20 Sudoeste 0 956.6 0.5 25
2019-09-28 12:00:00 28.2 4 Este 12 Este 0 956.8 0.9 28
2019-09-28 11:00:00 25.1 3 Este 8 Este 0 956.6 1.2 32
2019-09-28 10:00:00 20.4 4 Sudeste 8 Este 0 956.1 0.6 41
2019-09-28 09:00:00 13.3 5 Este 9 Sudeste 0 955.9 0.7 65
2019-09-28 08:00:00 12.9 5 Este 9 Este 0 955.4 0.2 65
2019-09-28 07:00:00 12.5 5 Este 8 Este 0 955.5 0.2 65
2019-09-28 06:00:00 12.5 4 Sudeste 7 Sudeste 0 955.2 -0.5 66
2019-09-28 05:00:00 13 5 Este 7 Este 0 955.2 -0.7 62
2019-09-28 04:00:00 13.7 5 Este 7 Este 0 955.3 -0.7 61
2019-09-28 03:00:00 14.8 4 Este 7 Este 0 955.7 -0.4 58
2019-09-28 02:00:00 14.9 4 Este 7 Sudeste 0 955.9 0.1 62
2019-09-28 01:00:00 16.9 4 Sudeste 7 Este 0 956 0.3 56
2019-09-28 00:00:00 16.9 5 Sudeste 7 Sudeste 0 956.1 1.1 64
2019-09-27 23:00:00 18.1 4 Este 6 Este 0 955.8 1.1 59
2019-09-27 22:00:00 19.7 2 Sudeste 6 Sur 0 955.7 1.2 51
2019-09-27 21:00:00 22 3 Este 5 Este 0 955 0.5 43
2019-09-27 20:00:00 28 0 Calma 16 Oeste 0 954.7 0 29
2019-09-27 19:00:00 30.4 6 Oeste 15 Oeste 0 954.5 -0.4 24
2019-09-27 18:00:00 31.5 7 Oeste 20 Noroeste 0 954.5 -1 21
2019-09-27 17:00:00 31.8 5 Sudoeste 20 Oeste 0 954.7 -1.3 21
2019-09-27 16:00:00 31.5 4 Sur 22 Oeste 0 954.9 -1.3 21
2019-09-27 15:00:00 31 2 Este 18 Oeste 0 955.5 -- 24
2019-09-27 14:00:00 30.3 2 Oeste 15 Sur 0 956 -- 25
2019-09-27 13:00:00 29.2 4 Sur 11 Sudoeste 0 956.2 -0.2 28
2019-09-27 12:00:00 -- 3 Nordeste -- -- -- -- -- --
2019-09-27 11:00:00 -- -- -- -- -- -- -- -- --
2019-09-27 10:00:00 19.2 3 Este 5 Sudeste 0 956.4 0.5 54
2019-09-27 09:00:00 13 4 Este 7 Este 0 956.4 0.6 75
2019-09-27 08:00:00 12.2 6 Este 8 Este 0 956 0.3 75
2019-09-27 07:00:00 12.6 5 Sudeste 8 Este 0 955.9 0 73
2019-09-27 06:00:00 13.1 5 Este 7 Este 0 955.8 -0.1 70
2019-09-27 05:00:00 13.6 5 Este 8 Este 0 955.7 -0.1 69
2019-09-27 04:00:00 14.1 3 Sudeste 6 Sudeste 0 955.9 -0.1 68
2019-09-27 03:00:00 15 4 Este 6 Este 0 955.9 -0.1 63
2019-09-27 02:00:00 15.7 3 Este 7 Este 0 955.8 -0.2 60
2019-09-27 01:00:00 15.7 4 Sudeste 7 Este 0 956 0.4 61
2019-09-27 00:00:00 16.4 3 Sudeste 6 Sudeste 0 956 1 59
2019-09-26 23:00:00 17.4 3 Este 5 Este 0 956 0.9 52
2019-09-26 22:00:00 20.8 0 Calma 11 Sur 0 955.6 0.7 43
2019-09-26 21:00:00 24.8 5 Sur 12 Sudoeste 0 955 0 31
2019-09-26 20:00:00 27.6 4 Sudoeste 12 Sudoeste 0 955.1 -0.1 26
2019-09-26 19:00:00 29.4 7 Oeste 17 Oeste 0 954.9 -0.5 23
2019-09-26 18:00:00 30.5 2 Sur 23 Noroeste 0 955 -0.6 22
2019-09-26 17:00:00 30.2 4 Sudoeste 19 Sudoeste 0 955.2 -0.9 21
2019-09-26 16:00:00 30.8 4 Noroeste 18 Noroeste 0 955.4 -1 21
2019-09-26 15:00:00 29.4 5 Oeste 19 Sudoeste 0 955.6 -1 24
2019-09-26 14:00:00 28.6 5 Oeste 17 Oeste 0 956.1 -0.5 26
2019-09-26 13:00:00 27.5 5 Sudoeste 16 Oeste 0 956.4 0.4 27
2019-09-26 12:00:00 25.8 5 Sudoeste 12 Sudoeste 0 956.6 0.8 31
2019-09-26 11:00:00 23.1 5 Este 9 Este 0 956.6 1.2 40
2019-09-26 10:00:00 18.9 4 Sudeste 6 Este 0 956 1 55
2019-09-26 09:00:00 12.2 4 Este 6 Este 0 955.8 0.8 80
2019-09-26 08:00:00 11.9 3 Este 6 Este 0 955.4 0.4 81
2019-09-26 07:00:00 12 4 Este 7 Este 0 955 0.1 79
2019-09-26 06:00:00 12.1 4 Este 8 Este 0 955 0.1 77
2019-09-26 05:00:00 12.3 4 Este 6 Este 0 955 0.1 76
2019-09-26 04:00:00 13.1 4 Este 5 Este 0 954.9 -0.2 71
2019-09-26 03:00:00 14.7 4 Este 5 Este 0 954.9 -0.4 62
2019-09-26 02:00:00 18.7 3 Noroeste 13 Nordeste 0 954.9 -0.4 45
2019-09-26 01:00:00 19.5 4 Nordeste 12 Nordeste 0 955.1 0.4 42
2019-09-26 00:00:00 19.8 5 Nordeste 15 Nordeste 0 955.3 0.7 41
2019-09-25 23:00:00 19.3 2 Noroeste 10 Nordeste 0 955.3 0.8 42
2019-09-25 22:00:00 19.9 0 Calma 9 Noroeste 0 954.7 0.3 42
2019-09-25 21:00:00 21.3 2 Noroeste 9 Nordeste 0 954.6 0.2 37
2019-09-25 20:00:00 24.6 6 Noroeste 18 Norte 0 954.5 0.1 31
2019-09-25 19:00:00 26.4 8 Norte 22 Norte 0 954.4 -0.3 28
2019-09-25 18:00:00 26.9 9 Noroeste 25 Noroeste 0 954.4 -0.8 28
2019-09-25 17:00:00 27.5 10 Noroeste 23 Noroeste 0 954.4 -1.3 26
2019-09-25 16:00:00 27.1 6 Norte 22 Noroeste 0 954.7 -1.5 27
2019-09-25 15:00:00 26.3 5 Norte 21 Noroeste 0 955.2 -1.2 27
2019-09-25 14:00:00 25.9 8 Noroeste 19 Noroeste 0 955.7 -0.5 31
2019-09-25 13:00:00 23.7 6 Norte 23 Nordeste 0 956.2 0.6 36
2019-09-25 12:00:00 20.8 6 Nordeste 18 Nordeste 0 956.4 1 49
2019-09-25 11:00:00 18.5 4 Norte 22 Este 0 956.2 1.3 63
2019-09-25 10:00:00 15.9 8 Nordeste 17 Nordeste 0 955.6 0.8 76
2019-09-25 09:00:00 13.6 6 Nordeste 13 Nordeste 0 955.4 0.6 86
2019-09-25 08:00:00 13.6 4 Este 10 Nordeste 0 954.9 0 83
2019-09-25 07:00:00 14 2 Sudeste 12 Este 0 954.8 -0.4 81
2019-09-25 06:00:00 15.6 4 Este 15 Nordeste 0 954.8 -0.8 75
2019-09-25 05:00:00 16.3 3 Nordeste 16 Nordeste 0 954.9 -0.8 78
2019-09-25 04:00:00 17.6 3 Nordeste 18 Este 0 955.2 -0.8 82
2019-09-25 03:00:00 18.5 6 Nordeste 18 Nordeste 0 955.6 -0.4 80
2019-09-25 02:00:00 19.2 6 Nordeste 15 Nordeste 0 955.7 -0.5 83
2019-09-25 01:00:00 19.8 3 Nordeste 11 Nordeste 0 956 0.1 77
2019-09-25 00:00:00 20.5 4 Nordeste 13 Nordeste 0 956 0.4 72
2019-09-24 23:00:00 21.5 3 Nordeste 15 Nordeste 0 956.2 1 66
2019-09-24 22:00:00 22.3 5 Nordeste 18 Noroeste 0 955.9 0.9 60
2019-09-24 21:00:00 24.1 7 Noroeste 22 Noroeste 0 955.6 0.6 51
2019-09-24 20:00:00 28 5 Noroeste 16 Oeste 0 955.2 -0.5 26
2019-09-24 19:00:00 30.1 9 Oeste 19 Oeste 0 955 -0.9 23
2019-09-24 18:00:00 30.9 8 Noroeste 20 Noroeste 0 955 -1.4 25
2019-09-24 17:00:00 30.8 6 Oeste 19 Oeste 0 955.7 -1.3 24
2019-09-24 16:00:00 30.3 11 Oeste 19 Oeste 0 955.9 -1.8 24
2019-09-24 15:00:00 29.4 8 Oeste 20 Oeste 0 956.4 -1.6 22
2019-09-24 14:00:00 29.1 3 Oeste 14 Noroeste 0 957 -1 26
2019-09-24 13:00:00 27.9 2 Oeste 15 Noroeste 0 957.7 0.2 28
2019-09-24 12:00:00 24.8 3 Este 12 Este 0 958 0.6 37
2019-09-24 11:00:00 21.3 7 Este 15 Este 0 958 0.9 51
2019-09-24 10:00:00 18.3 3 Este 6 Este 0 957.5 0.7 60
2019-09-24 09:00:00 12.1 3 Este 5 Este 0 957.4 0.7 79
2019-09-24 08:00:00 10.9 3 Sudeste 9 Este 0 957.1 0.5 80
2019-09-24 07:00:00 11.4 4 Sudeste 6 Este 0 956.8 -0.1 78
2019-09-24 06:00:00 12.1 3 Sudeste 8 Este 0 956.7 -0.3 75
2019-09-24 05:00:00 12.1 4 Este 6 Este 0 956.6 -0.6 78
2019-09-24 04:00:00 12.8 3 Este 8 Este 0 956.9 -0.4 71
2019-09-24 03:00:00 13.1 4 Este 6 Este 0 957 -0.4 75
2019-09-24 02:00:00 13.8 4 Este 7 Este 0 957.2 -0.1 71
2019-09-24 01:00:00 14.4 3 Este 6 Este 0 957.3 0.2 69
2019-09-24 00:00:00 15 3 Sudeste 7 Este 0 957.4 0.8 64
2019-09-23 23:00:00 16.2 4 Este 6 Este 0 957.3 0.8 61
2019-09-23 22:00:00 18.1 5 Sudeste 6 Sudeste 0 957.1 0.7 54
2019-09-23 21:00:00 19.7 4 Sudeste 5 Sudeste 0 956.6 0.2 49
2019-09-23 20:00:00 25.9 4 Noroeste 11 Oeste 0 956.5 0.1 29
2019-09-23 19:00:00 27.2 6 Noroeste 16 Noroeste 0 956.4 -0.4 26
2019-09-23 18:00:00 27.8 4 Noroeste 14 Oeste 0 956.4 -0.4 24
2019-09-23 17:00:00 27.8 4 Noroeste 16 Oeste 0 956.4 -0.9 26
2019-09-23 16:00:00 27.4 4 Norte 17 Oeste 0 956.8 -0.8 27
2019-09-23 15:00:00 26.7 4 Este 13 Este 0 956.8 -0.6 29
2019-09-23 14:00:00 25 -- -- -- -- 0 957.3 -0.1 33
2019-09-23 13:00:00 23.9 -- -- -- -- -- 957.6 0.3 38
2019-09-23 12:00:00 22.1 -- -- -- -- 0 957.4 0.7 36
2019-09-23 11:00:00 18.9 8 Este 14 Este 0 957.4 1.3 46
2019-09-23 10:00:00 16.2 4 Sudeste 9 Este 0 957.3 1.5 58
2019-09-23 09:00:00 11.3 3 Oeste 6 Este 0 956.7 1.1 78
2019-09-23 08:00:00 10.8 5 Este 8 Este 0 956.1 0.7 79
2019-09-23 07:00:00 10.7 3 Este 5 Este 0 955.8 0.4 79
2019-09-23 06:00:00 11 3 Este 6 Este 0 955.6 0.2 78
2019-09-23 05:00:00 11.9 3 Este 8 Sudeste 0 955.4 0.2 76
2019-09-23 04:00:00 12.4 2 Sudeste 9 Este 0 955.4 -0.2 72
2019-09-23 03:00:00 13.9 4 Este 12 Norte 0 955.4 -0.1 66
2019-09-23 02:00:00 14.3 3 Sudeste 7 Nordeste 0 955.2 -0.1 66
2019-09-23 01:00:00 16.9 2 Norte 10 Noroeste 0 955.6 0.8 50
2019-09-23 00:00:00 17.3 5 Noroeste 12 Noroeste 0 955.5 1.4 47
2019-09-22 23:00:00 17.1 5 Norte 11 Noroeste 0 955.3 1.6 47
2019-09-22 22:00:00 17.8 5 Noroeste 10 Norte 0 954.8 1.6 43
2019-09-22 21:00:00 18.6 5 Norte 10 Norte 0 954.1 0.9 40
2019-09-22 20:00:00 20.3 4 Noroeste 13 Noroeste 0 953.7 0.6 36
2019-09-22 19:00:00 22.8 8 Noroeste 18 Noroeste 0 953.2 0.1 31
2019-09-22 18:00:00 22.6 8 Norte 23 Norte 0 953.2 0.1 31
2019-09-22 17:00:00 22.5 9 Norte 19 Norte 0 953.1 -0.1 33
2019-09-22 16:00:00 21.9 8 Norte 20 Norte 0 953.1 0.2 37
2019-09-22 15:00:00 21.7 7 Norte 21 Noroeste 0 953.1 -0.1 36
2019-09-22 14:00:00 20.7 9 Norte 17 Norte 0 953.2 0.2 36
2019-09-22 13:00:00 19.7 9 Noroeste 18 Norte 0 952.9 0.7 43
2019-09-22 12:00:00 18.2 6 Norte 16 Norte 0 953.2 1.7 52
2019-09-22 11:00:00 16.7 6 Norte 15 Noroeste 0 953 2.3 64
2019-09-22 10:00:00 15.6 8 Noroeste 15 Noroeste 0.1 952.2 2 73
2019-09-22 09:00:00 16.2 9 Noroeste 19 Noroeste 2.7 951.5 1.4 82
2019-09-22 08:00:00 17.7 5 Sudoeste 21 Sudoeste 2.1 950.7 0.5 82
2019-09-22 07:00:00 17.5 7 Sudoeste 27 Sudoeste 1.2 950.2 -0.4 81
2019-09-22 06:00:00 17.3 7 Sudoeste 24 Sudoeste 1.9 950.1 -0.7 81
2019-09-22 05:00:00 17.4 6 Sudoeste 22 Sur 0.8 950.2 -0.6 81
2019-09-22 04:00:00 17.5 8 Sudoeste 24 Sudoeste 0.4 950.6 -0.2 82
2019-09-22 03:00:00 17.7 8 Sudoeste 23 Sudoeste 0 950.8 -0.2 80
2019-09-22 02:00:00 17.7 6 Sudoeste 21 Sudoeste 0 950.8 0.5 80
2019-09-22 01:00:00 17.9 6 Oeste 23 Sudoeste 0 950.8 0 81
2019-09-22 00:00:00 18.1 10 Sudoeste 25 Sudoeste 0 951 0.5 80